Weather observations for the past three days for
Mount Sterling-Montgomery County Airport
Imperial (Metric)
Date Time (edt) Wind (mph) Vis. (mi.) Weather Sky Cond. Temperature (ºF) Relative Humidity Wind Chill (°F) Heat Index (°F) Pressure Precipitation (in)
Air Dwpt 6 hour altimeter (in) sea level (mb) 1 hr 3 hr 6 hr
Max. Min.
02 18:15 Calm 10.00 Overcast SCT055 SCT065 OVC090 53.6 32 44% 30.04 0.0
02 17:55 Calm 10.00 Overcast SCT055 SCT065 OVC090 53.6 32 44% 30.04 0.0
02 17:35 N 7 10.00 Overcast OVC090 53.6 32 44% 30.04 0.0
02 17:15 N 8 10.00 Overcast SCT050 BKN075 OVC090 53.6 32 44% 30.04 0.0
02 16:55 N 9 10.00 Overcast OVC050 51.8 32 47% 30.04 0.0
02 16:35 Calm 10.00 Overcast BKN050 OVC070 51.8 32 47% 30.04 0.0
02 16:15 N 7 10.00 Overcast SCT060 BKN070 OVC090 55.4 33.8 44% 30.04 0.0
02 15:55 Calm 10.00 Overcast SCT060 SCT070 OVC090 53.6 32 44% 30.05 0.0
02 15:35 NW 5 10.00 Overcast SCT070 OVC090 55.4 32 41% 30.05 0.0
02 15:15 NW 8 10.00 Overcast SCT070 OVC090 53.6 32 44% 30.05 0.0
02 14:55 Calm 10.00 Overcast SCT070 OVC090 53.6 32 44% 30.05 0.0
02 14:35 Calm 10.00 Overcast BKN070 OVC080 53.6 32 44% 30.06 0.0
02 14:15 NW 8 10.00 Mostly Cloudy SCT070 BKN080 53.6 32 44% 30.06 0.0
02 13:55 Calm 10.00 Overcast SCT050 BKN070 OVC080 53.6 32 44% 30.06 0.0
02 13:35 Calm 10.00 Overcast BKN050 OVC070 53.6 32 44% 30.06 0.0
02 13:15 N 8 10.00 Mostly Cloudy SCT060 BKN065 BKN075 53.6 32 44% 30.06 0.0
02 12:55 Calm 10.00 Mostly Cloudy SCT049 BKN060 55.4 33.8 44% 30.07 0.0
02 12:35 Calm 10.00 Mostly Cloudy BKN049 BKN060 BKN070 51.8 32 47% 30.07 0.0
02 12:15 Calm 10.00 Mostly Cloudy SCT049 BKN060 BKN075 53.6 33.8 47% 30.08 0.0
02 11:55 Calm 10.00 Overcast BKN049 BKN060 OVC075 53.6 33.8 47% 30.08 0.0
02 11:35 NW 8 10.00 Partly Cloudy SCT044 SCT050 53.6 33.8 47% 30.08 0.0
02 11:15 Calm 10.00 Fair CLR 51.8 33.8 50% 30.08 0.0
02 10:55 Calm 10.00 Fair CLR 51.8 32 47% 30.08 0.0
02 10:35 Calm 10.00 Fair CLR 50 32 50% 30.07 0.0
02 10:15 Calm 10.00 Fair CLR 50 32 50% 30.08 0.0
02 09:55 Calm 10.00 Fair CLR 50 33.8 54% 30.08 0.0
02 09:35 Calm 10.00 Fair CLR 48.2 32 54% 30.07 0.0
02 09:15 Calm 10.00 Fair CLR 46.4 37.4 71% 30.07 0.0
02 08:55 Calm 10.00 Fair CLR 44.6 37.4 76% 30.08 0.0
02 08:35 Calm 10.00 Fair CLR 42.8 37.4 81% 30.07 0.0
02 08:15 Calm 10.00 Fair CLR 41 37.4 87% 30.07 0.0
02 07:55 Calm 10.00 Fair CLR 39.2 37.4 93% 30.07 0.0
02 07:35 Calm 10.00 Fair CLR 35.6 35.6 100% 30.06 0.0
02 07:15 Calm 10.00 Fair CLR 33.8 33.8 100% 30.06 0.0
02 06:55 Calm 10.00 Fair CLR 33.8 33.8 100% 30.05 0.0
02 06:35 Calm 10.00 Fair CLR 33.8 33.8 100% 30.06 0.0
02 06:15 Calm 10.00 Fair CLR 35.6 33.8 93% 30.05 0.0
02 05:55 Calm 10.00 Fair CLR 35.6 35.6 100% 30.05 0.0
02 05:35 Calm 10.00 Fair CLR 35.6 33.8 93% 30.05 0.0
02 05:15 Calm 10.00 Fair CLR 35.6 33.8 93% 30.06 0.0
02 04:55 Calm 10.00 Fair CLR 35.6 33.8 93% 30.05 0.0
02 04:35 Calm 10.00 Fair CLR 35.6 35.6 100% 30.05 0.0
02 04:15 Calm 10.00 Fair CLR 35.6 35.6 100% 30.05 0.0
02 03:55 Calm 10.00 Fair CLR 35.6 35.6 100% 30.06 0.0
02 03:35 Calm 10.00 Fair CLR 35.6 35.6 100% 30.05 0.0
02 03:15 Calm 10.00 Fair CLR 35.6 35.6 100% 30.05 0.0
02 02:55 Calm 10.00 NULL NULL 35.6 33.8 93% 30.05 0.0
02 02:35 Calm 10.00 Fair CLR 35.6 35.6 100% 30.05 0.0
02 02:15 Calm 10.00 Fair CLR 35.6 35.6 100% 30.06 0.0
02 01:55 Calm 10.00 Fair CLR 37.4 35.6 93% 30.06 0.0
02 01:35 Calm 10.00 Fair CLR 37.4 35.6 93% 30.06 0.0
02 01:15 Calm 10.00 Fair CLR 37.4 35.6 93% 30.06 0.0
02 00:55 Calm 10.00 Fair CLR 39.2 35.6 87% 30.06 0.0
02 00:35 Calm 10.00 Fair CLR 41 37.4 87% 30.07 0.0
02 00:15 Calm 10.00 Fair CLR 41 35.6 81% 30.07 0.0
01 23:55 Calm 10.00 Fair CLR 41 37.4 87% 30.07 0.0
01 23:35 Calm 10.00 Fair CLR 41 35.6 81% 30.07 0.0
01 23:15 Calm 10.00 Fair CLR 42.8 35.6 76% 30.07 0.0
01 22:55 Calm 10.00 Fair CLR 44.6 37.4 76% 30.07 0.0
01 22:35 Calm 10.00 Fair CLR 44.6 35.6 71% 30.07 0.0
01 22:15 Calm 10.00 Fair CLR 46.4 35.6 66% 30.07 0.0
01 21:55 Calm 10.00 Fair CLR 48.2 35.6 62% 30.06 0.0
01 21:35 Calm 10.00 Fair CLR 48.2 35.6 62% 30.04 0.0
01 21:15 Calm 10.00 Partly Cloudy SCT080 50 35.6 58% 30.03 0.0
01 20:55 Calm 10.00 Partly Cloudy SCT080 50 35.6 58% 30.02 0.0
01 20:35 Calm 10.00 Partly Cloudy SCT080 51.8 35.6 54% 30.01 0.0
01 20:15 N 6 10.00 Partly Cloudy SCT080 51.8 35.6 54% 30 0.0
01 19:55 Calm 10.00 Partly Cloudy SCT080 53.6 35.6 51% 29.99 0.0
01 19:35 N 5 10.00 Partly Cloudy SCT080 53.6 37.4 54% 29.99 0.0
01 19:15 N 10 G 16 10.00 Partly Cloudy SCT046 SCT055 SCT080 55.4 37.4 51% 29.98 0.0
01 18:55 N 3 G 17 10.00 Partly Cloudy SCT080 55.4 37.4 51% 29.98 0.0
01 18:35 N 8 10.00 Partly Cloudy SCT050 SCT080 55.4 37.4 51% 29.98 0.0
01 18:15 N 10 G 18 10.00 Mostly Cloudy BKN050 BKN080 55.4 37.4 51% 29.98 0.0
01 17:55 N 8 10.00 Overcast BKN050 OVC065 55.4 37.4 51% 29.98 0.0
01 17:35 N 9 10.00 Overcast SCT050 BKN065 OVC080 55.4 37.4 51% 29.97 0.0
01 17:15 NW 3 10.00 Overcast OVC090 57.2 37.4 48% 29.97 0.0
01 16:55 NW 8 G 18 10.00 Mostly Cloudy BKN090 59 37.4 45% 29.96 0.0
01 16:35 NW 12 G 17 10.00 Mostly Cloudy SCT075 BKN090 59 41 51% 29.97 0.0
01 16:15 NW 5 G 17 10.00 Mostly Cloudy SCT049 SCT055 BKN075 57.2 41 55% 29.97 0.0
01 15:55 NW 13 G 20 10.00 Mostly Cloudy BKN047 BKN065 59 39.2 48% 29.97 0.0
01 15:35 W 14 10.00 Mostly Cloudy BKN042 BKN060 60.8 42.8 52% 29.96 0.0
01 15:15 NW 3 10.00 Partly Cloudy SCT045 SCT050 SCT065 59 41 51% 29.98 0.0
01 14:55 Calm 10.00 Overcast SCT042 BKN050 OVC060 53.6 39.2 58% 29.98 0.0
01 14:35 NW 3 10.00 Overcast OVC050 53.6 39.2 58% 29.98 0.0
01 13:55 NW 10 G 18 10.00 Overcast OVC050 53.6 42.8 67% 29.98 0.0
01 13:35 NW 7 G 21 10.00 Overcast OVC050 55.4 41 59% 29.98 0.0
01 13:15 NW 6 G 18 10.00 Overcast OVC050 57.2 41 55% 29.97 0.0
01 12:55 NW 12 G 22 10.00 Overcast BKN050 OVC065 57.2 39.2 51% 29.97 0.0
01 12:35 W 7 G 16 10.00 Overcast SCT050 BKN060 OVC070 59 39.2 48% 29.96 0.0
01 12:15 SW 5 10.00 Mostly Cloudy SCT050 BKN070 BKN090 59 41 51% 29.95 0.0
01 11:55 W 12 G 20 10.00 Mostly Cloudy SCT070 BKN090 60.8 39.2 45% 29.96 0.0
01 11:35 W 14 G 20 10.00 Overcast OVC090 60.8 41 48% 29.95 0.0
01 11:15 SW 9 G 16 10.00 Mostly Cloudy BKN100 60.8 41 48% 29.95 0.0
01 10:55 SW 10 10.00 Partly Cloudy SCT110 59 41 51% 29.95 0.0
01 10:35 SW 6 10.00 Partly Cloudy SCT120 57.2 41 55% 29.95 0.0
01 10:15 Calm 10.00 Fair CLR 55.4 39.2 55% 29.95 0.0
01 09:55 Calm 10.00 Partly Cloudy SCT120 53.6 41 63% 29.96 0.0
01 09:35 Calm 10.00 Mostly Cloudy BKN110 53.6 39.2 58% 29.96 0.0
01 09:15 Calm 10.00 Partly Cloudy SCT110 51.8 39.2 62% 29.96 0.0
01 08:55 S 7 10.00 Partly Cloudy SCT110 51.8 39.2 62% 29.96 0.0
01 08:35 Calm 10.00 Fair CLR 50 39.2 67% 29.96 0.0
01 08:15 Calm 10.00 Fair CLR 46.4 41 82% 29.96 0.0
01 07:55 Calm 10.00 Fair CLR 42.8 41 93% 29.96 0.0
01 07:35 Calm 10.00 Fair CLR 41 39.2 93% 29.96 0.0
01 07:15 Calm 10.00 Fair CLR 39.2 37.4 93% 29.96 0.0
01 06:55 Calm 10.00 Fair CLR 39.2 37.4 93% 29.96 0.0
01 06:35 Calm 10.00 Fair CLR 39.2 37.4 93% 29.97 0.0
01 06:15 Calm 10.00 Fair CLR 41 37.4 87% 29.97 0.0
01 05:55 Calm 10.00 Fair CLR 39.2 37.4 93% 29.97 0.0
01 05:35 Calm 10.00 Fair CLR 41 37.4 87% 29.98 0.0
01 05:15 Calm 10.00 Fair CLR 41 37.4 87% 29.98 0.0
01 04:55 Calm 10.00 Fair CLR 41 37.4 87% 29.99 0.0
01 04:35 Calm 10.00 Fair CLR 41 37.4 87% 29.99 0.0
01 04:15 Calm 10.00 Fair CLR 41 39.2 93% 30 0.0
01 03:55 Calm 10.00 Fair CLR 39.2 37.4 93% 30 0.0
01 03:35 Calm 10.00 Fair CLR 39.2 37.4 93% 29.99 0.0
01 03:15 Calm 10.00 Fair CLR 41 39.2 93% 30 0.0
01 02:55 Calm 10.00 Fair CLR 41 39.2 93% 30 0.0
01 02:35 Calm 10.00 Fair CLR 41 39.2 93% 30 0.0
01 02:15 Calm 10.00 Fair CLR 41 41 100% 30.01 0.0
01 01:55 Calm 10.00 Fair CLR 42.8 41 93% 30.01 0.0
01 01:35 Calm 10.00 Fair CLR 42.8 41 93% 30.02 0.0
01 01:15 Calm 10.00 Fair CLR 41 41 100% 30.02 0.0
01 00:55 Calm 10.00 Fair CLR 41 41 100% 30.02 0.0
01 00:35 Calm 10.00 NULL NULL 42.8 41 93% 30.02 0.0
01 00:15 Calm 10.00 Fair CLR 42.8 41 93% 30.02 0.0
30 23:55 Calm 10.00 Fair CLR 42.8 41 93% 30.03 0.0
30 23:35 Calm 10.00 Fair CLR 42.8 41 93% 30.03 0.0
30 23:15 Calm 10.00 Fair CLR 44.6 39.2 81% 30.03 0.0
30 22:55 Calm 10.00 Fair CLR 44.6 41 87% 30.03 0.0
30 22:35 Calm 10.00 Fair CLR 44.6 41 87% 30.04 0.0
30 22:15 Calm 10.00 Fair CLR 44.6 41 87% 30.03 0.0
30 21:55 Calm 10.00 Fair CLR 46.4 41 82% 30.03 0.0
30 21:35 Calm 10.00 Fair CLR 46.4 41 82% 30.02 0.0
30 21:15 Calm 10.00 Fair CLR 46.4 39.2 76% 30.02 0.0
30 20:55 Calm 10.00 Fair CLR 50 37.4 62% 30.01 0.0
30 20:35 Calm 10.00 Fair CLR 53.6 35.6 51% 30.01 0.0
30 20:15 Calm 10.00 Fair CLR 53.6 33.8 47% 30 0.0
30 19:55 Calm 10.00 Fair CLR 55.4 33.8 44% 30 0.0
30 19:35 Calm 10.00 Fair CLR 57.2 32 39% 30 0.0
30 19:15 Calm 10.00 Fair CLR 59 33.8 39% 30 0.0
30 18:55 Calm 10.00 Partly Cloudy SCT055 59 33.8 39% 30 0.0
30 18:35 Calm 10.00 Fair CLR 59 33.8 39% 30.01 0.0
30 18:15 Calm 10.00 Fair CLR 59 33.8 39% 30 0.0
30 17:55 Calm 10.00 Fair CLR 57.2 32 39% 30 0.0
30 17:35 Calm 10.00 Partly Cloudy SCT055 59 35.6 42% 30 0.0
30 17:15 Calm 10.00 Fair CLR 59 33.8 39% 30.01 0.0
30 16:55 Calm 10.00 Partly Cloudy SCT050 59 35.6 42% 30.01 0.0
30 16:35 Calm 10.00 Mostly Cloudy BKN050 57.2 33.8 41% 30.02 0.0
30 16:15 NE 3 10.00 Mostly Cloudy BKN050 59 35.6 42% 30.03 0.0
30 15:55 N 9 10.00 Mostly Cloudy BKN050 59 35.6 42% 30.04 0.0
30 15:35 Calm 10.00 Mostly Cloudy BKN048 59 35.6 42% 30.04 0.0
30 15:15 N 12 10.00 Partly Cloudy SCT048 59 35.6 42% 30.03 0.0
30 14:55 NW 7 10.00 Partly Cloudy SCT048 59 37.4 45% 30.04 0.0
30 14:35 Calm 10.00 Mostly Cloudy BKN046 57.2 35.6 44% 30.04 0.0
30 14:15 N 7 10.00 Mostly Cloudy BKN046 55.4 37.4 51% 30.05 0.0
30 13:55 Calm 10.00 Partly Cloudy SCT042 SCT048 55.4 37.4 51% 30.05 0.0
30 13:35 Calm 10.00 Mostly Cloudy BKN040 BKN047 53.6 35.6 51% 30.05 0.0
30 13:15 N 7 10.00 Mostly Cloudy BKN040 53.6 37.4 54% 30.05 0.0
30 12:55 NE 7 10.00 Partly Cloudy SCT033 SCT039 53.6 39.2 58% 30.05 0.0
30 12:35 Calm 10.00 Partly Cloudy SCT031 SCT037 53.6 37.4 54% 30.06 0.0
30 12:15 Calm 10.00 Mostly Cloudy BKN031 53.6 37.4 54% 30.06 0.0
30 11:55 N 9 10.00 Overcast OVC031 51.8 37.4 58% 30.06 0.0
30 11:35 NE 6 10.00 Mostly Cloudy BKN029 51.8 37.4 58% 30.05 0.0
30 11:15 Calm 10.00 Partly Cloudy SCT026 SCT031 51.8 37.4 58% 30.05 0.0
30 10:55 N 3 10.00 Partly Cloudy SCT026 51.8 39.2 62% 30.05 0.0
30 10:35 Calm 10.00 Partly Cloudy SCT026 51.8 37.4 58% 30.04 0.0
30 10:15 Calm 10.00 Partly Cloudy SCT026 51.8 37.4 58% 30.04 0.0
30 09:55 N 3 10.00 Fair CLR 50 37.4 62% 30.03 0.0
30 09:35 NW 7 10.00 Fair CLR 50 35.6 58% 48 30.03 0.0
30 09:15 Calm 10.00 Fair CLR 50 37.4 62% 30.03 0.0
30 08:55 NW 3 10.00 Fair CLR 46.4 37.4 71% 30.03 0.0
30 08:35 N 3 10.00 Fair CLR 46.4 37.4 71% 30.03 0.0
30 08:15 Calm 10.00 Fair CLR 46.4 37.4 71% 30.02 0.0
30 07:55 Calm 10.00 Fair CLR 44.6 37.4 76% 30.01 0.0
30 07:35 Calm 10.00 Fair CLR 42.8 37.4 81% 30.01 0.0
30 07:15 Calm 10.00 Fair CLR 42.8 37.4 81% 30 0.0
30 06:55 Calm 10.00 Fair CLR 44.6 37.4 76% 29.99 0.0
30 06:35 Calm 10.00 Fair CLR 44.6 39.2 81% 29.98 0.0
30 06:15 Calm 10.00 Fair CLR 44.6 39.2 81% 29.98 0.0
30 05:55 Calm 10.00 NULL NULL 44.6 41 87% 29.97 0.0
30 05:35 Calm 10.00 Fair CLR 44.6 41 87% 29.97 0.0
30 05:15 Calm 10.00 Fair CLR 46.4 41 82% 29.96 0.0
30 04:55 Calm 0.00 NULL NULL 0 0 0% 29.96 0.0
30 04:35 Calm 10.00 Partly Cloudy SCT060 46.4 42.8 87% 29.95 0.0
30 04:15 Calm 10.00 Fair CLR 48.2 42.8 82% 29.95 0.0
30 03:55 Calm 10.00 Fair CLR 50 42.8 76% 29.95 0.0
30 03:35 Calm 10.00 Fair CLR 50 42.8 76% 29.95 0.0
30 03:15 Calm 10.00 Partly Cloudy SCT065 50 42.8 76% 29.97 0.0
30 02:55 Calm 10.00 Partly Cloudy SCT065 51.8 42.8 72% 29.97 0.0
30 02:35 N 5 10.00 Partly Cloudy SCT065 51.8 44.6 77% 29.98 0.0
30 02:15 Calm 10.00 Partly Cloudy SCT065 51.8 44.6 77% 29.98 0.0
30 01:55 Calm 10.00 Partly Cloudy SCT065 53.6 44.6 72% 29.98 0.0
30 01:35 Calm 10.00 Mostly Cloudy BKN050 BKN065 53.6 44.6 72% 29.98 0.0
30 01:15 Calm 10.00 Overcast OVC050 53.6 44.6 72% 29.99 0.0
30 00:55 Calm 10.00 Overcast OVC048 53.6 46.4 77% 29.98 0.0
30 00:35 Calm 10.00 Overcast BKN050 OVC065 53.6 46.4 77% 29.97 0.0
30 00:15 Calm 10.00 Mostly Cloudy SCT048 BKN055 BKN065 53.6 48.2 82% 29.97 0.0
29 23:55 Calm 10.00 Mostly Cloudy BKN048 BKN065 51.8 50 94% 29.96 0.0
29 23:35 Calm 10.00 Mostly Cloudy SCT050 BKN060 53.6 48.2 82% 29.96 0.0
29 23:15 Calm 10.00 Mostly Cloudy BKN050 53.6 48.2 82% 29.96 0.0
29 22:55 Calm 10.00 Overcast BKN050 OVC060 53.6 48.2 82% 29.96 0.0
29 22:35 Calm 10.00 Mostly Cloudy SCT048 BKN060 53.6 48.2 82% 29.96 0.0
29 22:15 Calm 10.00 Partly Cloudy SCT048 53.6 48.2 82% 29.95 0.0
29 21:55 Calm 10.00 Partly Cloudy SCT044 SCT050 53.6 48.2 82% 29.94 0.0
29 21:35 Calm 10.00 Partly Cloudy SCT044 55.4 48.2 77% 29.93 0.0
29 21:15 Calm 10.00 Fair CLR 57.2 48.2 72% 29.92 0.0
29 20:55 Calm 10.00 Fair CLR 59 48.2 68% 29.91 0.0
29 20:35 Calm 10.00 Fair CLR 59 48.2 68% 29.91 0.0
29 20:15 Calm 10.00 Fair CLR 60.8 48.2 63% 29.9 0.0
29 19:55 Calm 10.00 Partly Cloudy SCT055 62.6 50 64% 29.89 0.0
29 19:35 Calm 10.00 Fair CLR 62.6 50 64% 29.89 0.0
29 19:15 Calm 10.00 Fair CLR 64.4 50 60% 29.9 0.0
29 18:55 NW 7 G 10 10.00 Fair CLR 64.4 50 60% 29.9 0.0
29 18:35 Calm 10.00 Partly Cloudy SCT035 SCT043 SCT060 64.4 50 60% 29.9 0.0
Date Time (edt) Wind (mph) Vis. (mi.) Weather Sky Cond. Air Dwpt Max. Min. Relative Humidity Wind Chill (°F) Heat Index (°F) altimeter (in) sea level (mb) 1 hr 3 hr 6 hr
6 hour
Temperature (ºF) Pressure Precipitation (in)